sensor_id;sensor_type;location;lat;lon;timestamp;P1;durP1;ratioP1;P2;durP2;ratioP2
35592;SDS011;64447;52.140;5.602;2023-03-01T00:04:00;12.75;;;9.00;;
35592;SDS011;64447;52.140;5.602;2023-03-01T00:06:26;11.20;;;8.00;;
35592;SDS011;64447;52.140;5.602;2023-03-01T00:08:52;10.88;;;7.53;;
35592;SDS011;64447;52.140;5.602;2023-03-01T00:11:19;12.20;;;7.82;;
35592;SDS011;64447;52.140;5.602;2023-03-01T00:13:52;12.43;;;8.00;;
35592;SDS011;64447;52.140;5.602;2023-03-01T00:16:21;10.50;;;7.70;;
35592;SDS011;64447;52.140;5.602;2023-03-01T00:18:48;11.05;;;8.30;;
35592;SDS011;64447;52.140;5.602;2023-03-01T00:21:14;13.48;;;9.00;;
35592;SDS011;64447;52.140;5.602;2023-03-01T00:23:40;10.38;;;8.27;;
35592;SDS011;64447;52.140;5.602;2023-03-01T00:26:06;12.40;;;8.20;;
35592;SDS011;64447;52.140;5.602;2023-03-01T00:28:34;10.23;;;7.95;;
35592;SDS011;64447;52.140;5.602;2023-03-01T00:34:59;11.55;;;8.70;;
35592;SDS011;64447;52.140;5.602;2023-03-01T00:37:25;12.82;;;8.25;;
35592;SDS011;64447;52.140;5.602;2023-03-01T00:39:50;12.15;;;9.13;;
35592;SDS011;64447;52.140;5.602;2023-03-01T00:42:16;11.88;;;8.88;;
35592;SDS011;64447;52.140;5.602;2023-03-01T00:44:42;12.65;;;8.75;;
35592;SDS011;64447;52.140;5.602;2023-03-01T00:47:07;10.65;;;8.57;;
35592;SDS011;64447;52.140;5.602;2023-03-01T00:49:33;12.95;;;8.77;;
35592;SDS011;64447;52.140;5.602;2023-03-01T00:51:59;13.88;;;9.27;;
35592;SDS011;64447;52.140;5.602;2023-03-01T00:54:25;14.05;;;8.88;;
35592;SDS011;64447;52.140;5.602;2023-03-01T00:56:50;13.32;;;8.88;;
35592;SDS011;64447;52.140;5.602;2023-03-01T00:59:16;13.27;;;8.68;;
35592;SDS011;64447;52.140;5.602;2023-03-01T01:01:41;15.93;;;9.55;;
35592;SDS011;64447;52.140;5.602;2023-03-01T01:04:08;13.45;;;9.65;;
35592;SDS011;64447;52.140;5.602;2023-03-01T01:06:37;11.57;;;9.43;;
35592;SDS011;64447;52.140;5.602;2023-03-01T01:09:08;13.95;;;9.75;;
35592;SDS011;64447;52.140;5.602;2023-03-01T01:11:41;12.48;;;9.65;;
35592;SDS011;64447;52.140;5.602;2023-03-01T01:14:08;13.25;;;9.55;;
35592;SDS011;64447;52.140;5.602;2023-03-01T01:16:34;16.35;;;9.45;;
35592;SDS011;64447;52.140;5.602;2023-03-01T01:19:01;13.73;;;9.90;;
35592;SDS011;64447;52.140;5.602;2023-03-01T01:21:27;13.85;;;8.93;;
35592;SDS011;64447;52.140;5.602;2023-03-01T01:23:54;17.05;;;9.73;;
35592;SDS011;64447;52.140;5.602;2023-03-01T01:26:22;12.35;;;9.63;;
35592;SDS011;64447;52.140;5.602;2023-03-01T01:28:48;15.93;;;10.07;;
35592;SDS011;64447;52.140;5.602;2023-03-01T01:34:50;12.15;;;9.30;;
35592;SDS011;64447;52.140;5.602;2023-03-01T01:37:15;16.83;;;9.80;;
35592;SDS011;64447;52.140;5.602;2023-03-01T01:39:41;14.20;;;9.30;;
35592;SDS011;64447;52.140;5.602;2023-03-01T01:42:10;14.95;;;9.68;;
35592;SDS011;64447;52.140;5.602;2023-03-01T01:44:41;12.98;;;9.15;;
35592;SDS011;64447;52.140;5.602;2023-03-01T01:47:12;12.90;;;8.73;;
35592;SDS011;64447;52.140;5.602;2023-03-01T01:49:51;14.95;;;9.57;;
35592;SDS011;64447;52.140;5.602;2023-03-01T01:52:30;12.90;;;9.55;;
35592;SDS011;64447;52.140;5.602;2023-03-01T01:55:03;12.90;;;8.77;;
35592;SDS011;64447;52.140;5.602;2023-03-01T02:00:15;13.75;;;9.10;;
35592;SDS011;64447;52.140;5.602;2023-03-01T02:02:50;12.30;;;9.25;;
35592;SDS011;64447;52.140;5.602;2023-03-01T02:05:26;16.50;;;9.55;;
35592;SDS011;64447;52.140;5.602;2023-03-01T02:07:59;12.68;;;9.23;;
35592;SDS011;64447;52.140;5.602;2023-03-01T02:10:25;11.02;;;8.68;;
35592;SDS011;64447;52.140;5.602;2023-03-01T02:12:52;11.88;;;8.98;;
35592;SDS011;64447;52.140;5.602;2023-03-01T02:15:19;14.52;;;9.15;;
35592;SDS011;64447;52.140;5.602;2023-03-01T02:17:44;13.77;;;8.77;;
35592;SDS011;64447;52.140;5.602;2023-03-01T02:20:18;13.95;;;9.40;;
35592;SDS011;64447;52.140;5.602;2023-03-01T02:22:52;11.38;;;9.10;;
35592;SDS011;64447;52.140;5.602;2023-03-01T02:30:38;17.23;;;10.07;;
35592;SDS011;64447;52.140;5.602;2023-03-01T02:33:24;17.08;;;10.15;;
35592;SDS011;64447;52.140;5.602;2023-03-01T02:35:51;20.90;;;10.30;;
35592;SDS011;64447;52.140;5.602;2023-03-01T02:38:18;17.02;;;9.82;;
35592;SDS011;64447;52.140;5.602;2023-03-01T02:40:45;14.07;;;9.48;;
35592;SDS011;64447;52.140;5.602;2023-03-01T02:43:11;14.82;;;9.07;;
35592;SDS011;64447;52.140;5.602;2023-03-01T02:45:37;14.68;;;9.82;;
35592;SDS011;64447;52.140;5.602;2023-03-01T02:48:08;13.85;;;9.32;;
35592;SDS011;64447;52.140;5.602;2023-03-01T02:53:27;14.38;;;9.05;;
35592;SDS011;64447;52.140;5.602;2023-03-01T02:55:54;17.05;;;9.05;;
35592;SDS011;64447;52.140;5.602;2023-03-01T02:58:20;16.48;;;10.30;;
35592;SDS011;64447;52.140;5.602;2023-03-01T03:00:46;15.40;;;9.55;;
35592;SDS011;64447;52.140;5.602;2023-03-01T03:03:14;13.85;;;9.80;;
35592;SDS011;64447;52.140;5.602;2023-03-01T03:05:40;14.15;;;9.77;;
35592;SDS011;64447;52.140;5.602;2023-03-01T03:08:06;12.95;;;9.18;;
35592;SDS011;64447;52.140;5.602;2023-03-01T03:10:34;12.70;;;9.30;;
35592;SDS011;64447;52.140;5.602;2023-03-01T03:13:02;13.88;;;9.57;;
35592;SDS011;64447;52.140;5.602;2023-03-01T03:15:28;14.75;;;9.95;;
35592;SDS011;64447;52.140;5.602;2023-03-01T03:17:55;15.40;;;10.40;;
35592;SDS011;64447;52.140;5.602;2023-03-01T03:20:22;13.73;;;9.48;;
35592;SDS011;64447;52.140;5.602;2023-03-01T03:22:51;13.57;;;9.27;;
35592;SDS011;64447;52.140;5.602;2023-03-01T03:25:17;13.18;;;9.50;;
35592;SDS011;64447;52.140;5.602;2023-03-01T03:27:44;12.90;;;10.00;;
35592;SDS011;64447;52.140;5.602;2023-03-01T03:30:12;16.55;;;10.13;;
35592;SDS011;64447;52.140;5.602;2023-03-01T03:32:39;13.13;;;9.13;;
35592;SDS011;64447;52.140;5.602;2023-03-01T03:35:06;13.70;;;10.00;;
35592;SDS011;64447;52.140;5.602;2023-03-01T03:37:40;15.95;;;9.38;;
35592;SDS011;64447;52.140;5.602;2023-03-01T03:40:26;15.38;;;9.90;;
35592;SDS011;64447;52.140;5.602;2023-03-01T03:42:52;13.02;;;10.00;;
35592;SDS011;64447;52.140;5.602;2023-03-01T03:45:18;15.80;;;10.07;;
35592;SDS011;64447;52.140;5.602;2023-03-01T03:47:44;14.18;;;10.50;;
35592;SDS011;64447;52.140;5.602;2023-03-01T03:50:11;14.18;;;9.82;;
35592;SDS011;64447;52.140;5.602;2023-03-01T03:52:37;12.82;;;10.05;;
35592;SDS011;64447;52.140;5.602;2023-03-01T03:55:04;12.15;;;9.93;;
35592;SDS011;64447;52.140;5.602;2023-03-01T03:57:38;14.02;;;10.55;;
35592;SDS011;64447;52.140;5.602;2023-03-01T04:00:05;15.65;;;10.35;;
35592;SDS011;64447;52.140;5.602;2023-03-01T04:02:38;16.15;;;9.35;;
35592;SDS011;64447;52.140;5.602;2023-03-01T04:05:04;14.40;;;10.50;;
35592;SDS011;64447;52.140;5.602;2023-03-01T04:07:30;13.73;;;9.73;;
35592;SDS011;64447;52.140;5.602;2023-03-01T04:09:56;17.08;;;10.52;;
35592;SDS011;64447;52.140;5.602;2023-03-01T04:12:22;15.50;;;10.32;;
35592;SDS011;64447;52.140;5.602;2023-03-01T04:14:48;17.55;;;11.00;;
35592;SDS011;64447;52.140;5.602;2023-03-01T04:17:14;14.40;;;9.98;;
35592;SDS011;64447;52.140;5.602;2023-03-01T04:19:40;14.90;;;10.02;;
35592;SDS011;64447;52.140;5.602;2023-03-01T04:22:08;16.10;;;11.05;;
35592;SDS011;64447;52.140;5.602;2023-03-01T04:24:36;14.85;;;10.55;;
35592;SDS011;64447;52.140;5.602;2023-03-01T04:27:02;14.07;;;10.77;;
35592;SDS011;64447;52.140;5.602;2023-03-01T04:29:28;15.75;;;10.32;;
35592;SDS011;64447;52.140;5.602;2023-03-01T04:35:16;12.77;;;10.25;;
35592;SDS011;64447;52.140;5.602;2023-03-01T04:37:41;15.18;;;9.73;;
35592;SDS011;64447;52.140;5.602;2023-03-01T04:40:07;12.30;;;9.43;;
35592;SDS011;64447;52.140;5.602;2023-03-01T04:42:41;12.35;;;10.00;;
35592;SDS011;64447;52.140;5.602;2023-03-01T04:45:07;12.00;;;9.02;;
35592;SDS011;64447;52.140;5.602;2023-03-01T04:47:47;14.52;;;11.05;;
35592;SDS011;64447;52.140;5.602;2023-03-01T04:50:13;12.77;;;9.75;;
35592;SDS011;64447;52.140;5.602;2023-03-01T04:52:41;15.98;;;10.77;;
35592;SDS011;64447;52.140;5.602;2023-03-01T04:55:07;14.88;;;11.18;;
35592;SDS011;64447;52.140;5.602;2023-03-01T04:57:33;13.77;;;10.18;;
35592;SDS011;64447;52.140;5.602;2023-03-01T04:59:59;17.80;;;9.93;;
35592;SDS011;64447;52.140;5.602;2023-03-01T05:02:24;14.50;;;10.38;;
35592;SDS011;64447;52.140;5.602;2023-03-01T05:04:50;14.68;;;10.05;;
35592;SDS011;64447;52.140;5.602;2023-03-01T05:07:15;14.43;;;10.25;;
35592;SDS011;64447;52.140;5.602;2023-03-01T05:09:45;13.90;;;10.10;;
35592;SDS011;64447;52.140;5.602;2023-03-01T05:12:11;16.58;;;10.65;;
35592;SDS011;64447;52.140;5.602;2023-03-01T05:14:37;17.23;;;11.10;;
35592;SDS011;64447;52.140;5.602;2023-03-01T05:20:25;16.23;;;10.20;;
35592;SDS011;64447;52.140;5.602;2023-03-01T05:22:55;17.38;;;10.85;;
35592;SDS011;64447;52.140;5.602;2023-03-01T05:25:23;19.05;;;10.98;;
35592;SDS011;64447;52.140;5.602;2023-03-01T05:27:49;16.08;;;10.55;;
35592;SDS011;64447;52.140;5.602;2023-03-01T05:30:16;16.67;;;9.95;;
35592;SDS011;64447;52.140;5.602;2023-03-01T05:32:43;17.65;;;10.93;;
35592;SDS011;64447;52.140;5.602;2023-03-01T05:35:11;13.02;;;10.55;;
35592;SDS011;64447;52.140;5.602;2023-03-01T05:37:38;15.85;;;10.90;;
35592;SDS011;64447;52.140;5.602;2023-03-01T05:40:06;14.60;;;10.07;;
35592;SDS011;64447;52.140;5.602;2023-03-01T05:42:40;13.93;;;10.75;;
35592;SDS011;64447;52.140;5.602;2023-03-01T05:45:09;15.68;;;11.30;;
35592;SDS011;64447;52.140;5.602;2023-03-01T05:47:37;15.48;;;10.35;;
35592;SDS011;64447;52.140;5.602;2023-03-01T05:50:03;20.65;;;11.35;;
35592;SDS011;64447;52.140;5.602;2023-03-01T05:52:29;17.95;;;11.45;;
35592;SDS011;64447;52.140;5.602;2023-03-01T05:54:54;15.07;;;10.70;;
35592;SDS011;64447;52.140;5.602;2023-03-01T05:57:20;17.05;;;10.75;;
35592;SDS011;64447;52.140;5.602;2023-03-01T05:59:46;18.50;;;10.07;;
35592;SDS011;64447;52.140;5.602;2023-03-01T06:05:33;16.23;;;11.45;;
35592;SDS011;64447;52.140;5.602;2023-03-01T06:07:59;18.70;;;11.20;;
35592;SDS011;64447;52.140;5.602;2023-03-01T06:10:26;17.38;;;11.00;;
35592;SDS011;64447;52.140;5.602;2023-03-01T06:12:51;15.65;;;11.82;;
35592;SDS011;64447;52.140;5.602;2023-03-01T06:15:18;16.15;;;10.82;;
35592;SDS011;64447;52.140;5.602;2023-03-01T06:17:44;19.67;;;11.93;;
35592;SDS011;64447;52.140;5.602;2023-03-01T06:20:15;18.80;;;11.00;;
35592;SDS011;64447;52.140;5.602;2023-03-01T06:22:43;19.70;;;11.40;;
35592;SDS011;64447;52.140;5.602;2023-03-01T06:25:09;15.20;;;10.45;;
35592;SDS011;64447;52.140;5.602;2023-03-01T06:27:35;18.85;;;12.05;;
35592;SDS011;64447;52.140;5.602;2023-03-01T06:30:01;19.02;;;11.50;;
35592;SDS011;64447;52.140;5.602;2023-03-01T06:35:50;17.38;;;10.70;;
35592;SDS011;64447;52.140;5.602;2023-03-01T06:38:16;19.23;;;11.98;;
35592;SDS011;64447;52.140;5.602;2023-03-01T06:40:44;18.75;;;12.05;;
35592;SDS011;64447;52.140;5.602;2023-03-01T06:43:10;21.15;;;12.68;;
35592;SDS011;64447;52.140;5.602;2023-03-01T06:45:36;18.48;;;12.10;;
35592;SDS011;64447;52.140;5.602;2023-03-01T06:48:05;17.08;;;11.68;;
35592;SDS011;64447;52.140;5.602;2023-03-01T06:50:32;22.17;;;12.57;;
35592;SDS011;64447;52.140;5.602;2023-03-01T06:52:58;22.48;;;12.32;;
35592;SDS011;64447;52.140;5.602;2023-03-01T06:55:24;20.20;;;12.02;;
35592;SDS011;64447;52.140;5.602;2023-03-01T06:57:53;21.67;;;12.32;;
35592;SDS011;64447;52.140;5.602;2023-03-01T07:00:21;17.52;;;12.80;;
35592;SDS011;64447;52.140;5.602;2023-03-01T07:02:47;19.23;;;12.02;;
35592;SDS011;64447;52.140;5.602;2023-03-01T07:05:12;19.35;;;13.00;;
35592;SDS011;64447;52.140;5.602;2023-03-01T07:07:38;20.50;;;12.45;;
35592;SDS011;64447;52.140;5.602;2023-03-01T07:10:04;19.55;;;12.93;;
35592;SDS011;64447;52.140;5.602;2023-03-01T07:12:30;20.70;;;13.93;;
35592;SDS011;64447;52.140;5.602;2023-03-01T07:14:55;23.25;;;13.82;;
35592;SDS011;64447;52.140;5.602;2023-03-01T07:20:42;20.60;;;14.57;;
35592;SDS011;64447;52.140;5.602;2023-03-01T07:23:08;21.35;;;13.00;;
35592;SDS011;64447;52.140;5.602;2023-03-01T07:25:34;22.88;;;14.32;;
35592;SDS011;64447;52.140;5.602;2023-03-01T07:27:59;24.70;;;13.38;;
35592;SDS011;64447;52.140;5.602;2023-03-01T07:30:25;20.55;;;12.90;;
35592;SDS011;64447;52.140;5.602;2023-03-01T07:36:32;22.88;;;13.02;;
35592;SDS011;64447;52.140;5.602;2023-03-01T07:38:57;23.17;;;13.90;;
35592;SDS011;64447;52.140;5.602;2023-03-01T07:41:24;23.90;;;13.65;;
35592;SDS011;64447;52.140;5.602;2023-03-01T07:43:49;23.80;;;13.55;;
35592;SDS011;64447;52.140;5.602;2023-03-01T07:46:15;24.00;;;13.52;;
35592;SDS011;64447;52.140;5.602;2023-03-01T07:48:41;22.23;;;13.65;;
35592;SDS011;64447;52.140;5.602;2023-03-01T07:51:06;20.85;;;13.88;;
35592;SDS011;64447;52.140;5.602;2023-03-01T07:53:32;22.00;;;12.85;;
35592;SDS011;64447;52.140;5.602;2023-03-01T07:56:06;21.25;;;13.07;;
35592;SDS011;64447;52.140;5.602;2023-03-01T07:58:34;24.42;;;13.25;;
35592;SDS011;64447;52.140;5.602;2023-03-01T08:01:01;22.60;;;12.73;;
35592;SDS011;64447;52.140;5.602;2023-03-01T08:03:27;19.67;;;12.90;;
35592;SDS011;64447;52.140;5.602;2023-03-01T08:05:53;20.13;;;13.43;;
35592;SDS011;64447;52.140;5.602;2023-03-01T08:08:19;27.63;;;13.63;;
35592;SDS011;64447;52.140;5.602;2023-03-01T08:10:45;27.58;;;15.73;;
35592;SDS011;64447;52.140;5.602;2023-03-01T08:13:10;24.27;;;15.27;;
35592;SDS011;64447;52.140;5.602;2023-03-01T08:15:36;32.05;;;16.45;;
35592;SDS011;64447;52.140;5.602;2023-03-01T08:21:23;25.35;;;14.35;;
35592;SDS011;64447;52.140;5.602;2023-03-01T08:23:49;28.48;;;16.13;;
35592;SDS011;64447;52.140;5.602;2023-03-01T08:26:16;22.35;;;15.02;;
35592;SDS011;64447;52.140;5.602;2023-03-01T08:28:43;24.90;;;14.77;;
35592;SDS011;64447;52.140;5.602;2023-03-01T08:31:17;23.30;;;12.82;;
35592;SDS011;64447;52.140;5.602;2023-03-01T08:33:43;19.42;;;12.82;;
35592;SDS011;64447;52.140;5.602;2023-03-01T08:36:08;19.05;;;12.07;;
35592;SDS011;64447;52.140;5.602;2023-03-01T08:38:34;18.20;;;11.52;;
35592;SDS011;64447;52.140;5.602;2023-03-01T08:41:01;15.93;;;10.50;;
35592;SDS011;64447;52.140;5.602;2023-03-01T08:43:29;19.48;;;11.30;;
35592;SDS011;64447;52.140;5.602;2023-03-01T08:45:55;16.38;;;10.35;;
35592;SDS011;64447;52.140;5.602;2023-03-01T08:48:21;15.63;;;10.18;;
35592;SDS011;64447;52.140;5.602;2023-03-01T08:50:46;14.02;;;9.75;;
35592;SDS011;64447;52.140;5.602;2023-03-01T08:53:12;14.50;;;9.70;;
35592;SDS011;64447;52.140;5.602;2023-03-01T08:55:37;16.92;;;10.57;;
35592;SDS011;64447;52.140;5.602;2023-03-01T08:58:03;18.05;;;10.27;;
35592;SDS011;64447;52.140;5.602;2023-03-01T09:00:29;16.15;;;10.25;;
35592;SDS011;64447;52.140;5.602;2023-03-01T09:06:16;16.08;;;9.85;;
35592;SDS011;64447;52.140;5.602;2023-03-01T09:08:43;13.73;;;9.15;;
35592;SDS011;64447;52.140;5.602;2023-03-01T09:11:11;14.57;;;9.35;;
35592;SDS011;64447;52.140;5.602;2023-03-01T09:13:38;15.90;;;9.10;;
35592;SDS011;64447;52.140;5.602;2023-03-01T09:16:05;16.33;;;9.07;;
35592;SDS011;64447;52.140;5.602;2023-03-01T09:18:31;14.40;;;8.43;;
35592;SDS011;64447;52.140;5.602;2023-03-01T09:23:52;13.40;;;7.43;;
35592;SDS011;64447;52.140;5.602;2023-03-01T09:26:19;12.90;;;8.45;;
35592;SDS011;64447;52.140;5.602;2023-03-01T09:28:47;12.90;;;8.55;;
35592;SDS011;64447;52.140;5.602;2023-03-01T09:31:14;11.73;;;8.18;;
35592;SDS011;64447;52.140;5.602;2023-03-01T09:33:42;10.98;;;7.55;;
35592;SDS011;64447;52.140;5.602;2023-03-01T09:36:14;11.73;;;8.35;;
35592;SDS011;64447;52.140;5.602;2023-03-01T09:38:41;12.30;;;7.93;;
35592;SDS011;64447;52.140;5.602;2023-03-01T09:41:09;10.52;;;7.63;;
35592;SDS011;64447;52.140;5.602;2023-03-01T09:44:08;12.95;;;7.47;;
35592;SDS011;64447;52.140;5.602;2023-03-01T09:53:08;10.48;;;6.93;;
35592;SDS011;64447;52.140;5.602;2023-03-01T10:01:17;9.05;;;4.88;;
35592;SDS011;64447;52.140;5.602;2023-03-01T10:07:38;7.85;;;4.97;;
35592;SDS011;64447;52.140;5.602;2023-03-01T10:10:22;7.18;;;4.80;;
35592;SDS011;64447;52.140;5.602;2023-03-01T10:12:50;8.63;;;4.85;;
35592;SDS011;64447;52.140;5.602;2023-03-01T10:15:18;5.90;;;4.43;;
35592;SDS011;64447;52.140;5.602;2023-03-01T10:21:13;7.25;;;4.53;;
35592;SDS011;64447;52.140;5.602;2023-03-01T10:23:42;7.15;;;4.70;;
35592;SDS011;64447;52.140;5.602;2023-03-01T10:29:02;5.68;;;4.50;;
35592;SDS011;64447;52.140;5.602;2023-03-01T10:31:36;7.78;;;4.60;;
35592;SDS011;64447;52.140;5.602;2023-03-01T10:34:15;7.35;;;5.03;;
35592;SDS011;64447;52.140;5.602;2023-03-01T10:36:49;6.47;;;4.30;;
35592;SDS011;64447;52.140;5.602;2023-03-01T10:39:17;6.72;;;4.25;;
35592;SDS011;64447;52.140;5.602;2023-03-01T10:41:52;8.35;;;4.25;;
35592;SDS011;64447;52.140;5.602;2023-03-01T10:50:03;6.03;;;3.90;;
35592;SDS011;64447;52.140;5.602;2023-03-01T10:55:00;6.32;;;4.20;;
35592;SDS011;64447;52.140;5.602;2023-03-01T10:57:35;6.50;;;3.97;;
35592;SDS011;64447;52.140;5.602;2023-03-01T11:00:19;7.88;;;3.75;;
35592;SDS011;64447;52.140;5.602;2023-03-01T11:03:11;5.22;;;3.70;;
35592;SDS011;64447;52.140;5.602;2023-03-01T11:05:44;5.35;;;3.95;;
35592;SDS011;64447;52.140;5.602;2023-03-01T11:08:33;8.05;;;4.80;;
35592;SDS011;64447;52.140;5.602;2023-03-01T11:13:34;7.72;;;4.57;;
35592;SDS011;64447;52.140;5.602;2023-03-01T11:16:07;7.15;;;4.43;;
35592;SDS011;64447;52.140;5.602;2023-03-01T11:18:37;6.80;;;4.97;;
35592;SDS011;64447;52.140;5.602;2023-03-01T11:21:02;8.13;;;5.80;;
35592;SDS011;64447;52.140;5.602;2023-03-01T11:23:29;10.75;;;5.18;;
35592;SDS011;64447;52.140;5.602;2023-03-01T11:25:57;8.30;;;4.85;;
35592;SDS011;64447;52.140;5.602;2023-03-01T11:28:27;7.72;;;4.57;;
35592;SDS011;64447;52.140;5.602;2023-03-01T11:30:55;6.57;;;4.57;;
35592;SDS011;64447;52.140;5.602;2023-03-01T11:39:02;9.05;;;4.78;;
35592;SDS011;64447;52.140;5.602;2023-03-01T11:41:38;6.38;;;4.38;;
35592;SDS011;64447;52.140;5.602;2023-03-01T11:46:41;5.70;;;4.40;;
35592;SDS011;64447;52.140;5.602;2023-03-01T11:50:24;6.32;;;4.47;;
35592;SDS011;64447;52.140;5.602;2023-03-01T12:01:15;6.10;;;3.97;;
35592;SDS011;64447;52.140;5.602;2023-03-01T12:29:54;6.85;;;5.03;;
35592;SDS011;64447;52.140;5.602;2023-03-01T12:38:18;7.03;;;4.28;;
35592;SDS011;64447;52.140;5.602;2023-03-01T12:46:31;7.07;;;4.00;;
35592;SDS011;64447;52.140;5.602;2023-03-01T12:51:42;8.35;;;3.95;;
35592;SDS011;64447;52.140;5.602;2023-03-01T12:54:16;8.43;;;4.35;;
35592;SDS011;64447;52.140;5.602;2023-03-01T12:56:50;6.60;;;4.15;;
35592;SDS011;64447;52.140;5.602;2023-03-01T12:59:18;4.50;;;3.70;;
35592;SDS011;64447;52.140;5.602;2023-03-01T13:08:57;6.97;;;4.10;;
35592;SDS011;64447;52.140;5.602;2023-03-01T13:11:30;8.30;;;4.15;;
35592;SDS011;64447;52.140;5.602;2023-03-01T13:16:46;6.13;;;4.07;;
35592;SDS011;64447;52.140;5.602;2023-03-01T13:22:34;8.52;;;4.45;;
35592;SDS011;64447;52.140;5.602;2023-03-01T13:25:02;6.15;;;4.35;;
35592;SDS011;64447;52.140;5.602;2023-03-01T13:27:38;6.90;;;4.53;;
35592;SDS011;64447;52.140;5.602;2023-03-01T13:30:04;6.65;;;4.38;;
35592;SDS011;64447;52.140;5.602;2023-03-01T13:33:14;7.90;;;4.30;;
35592;SDS011;64447;52.140;5.602;2023-03-01T13:35:53;5.63;;;4.07;;
35592;SDS011;64447;52.140;5.602;2023-03-01T13:41:11;5.10;;;4.18;;
35592;SDS011;64447;52.140;5.602;2023-03-01T13:43:38;5.40;;;3.72;;
35592;SDS011;64447;52.140;5.602;2023-03-01T13:46:08;7.25;;;4.30;;
35592;SDS011;64447;52.140;5.602;2023-03-01T13:48:41;4.93;;;4.25;;
35592;SDS011;64447;52.140;5.602;2023-03-01T13:51:10;7.00;;;4.45;;
35592;SDS011;64447;52.140;5.602;2023-03-01T13:53:42;4.97;;;3.72;;
35592;SDS011;64447;52.140;5.602;2023-03-01T13:56:17;7.30;;;4.07;;
35592;SDS011;64447;52.140;5.602;2023-03-01T13:58:50;8.02;;;4.10;;
35592;SDS011;64447;52.140;5.602;2023-03-01T14:01:27;6.30;;;4.10;;
35592;SDS011;64447;52.140;5.602;2023-03-01T14:03:57;7.93;;;4.68;;
35592;SDS011;64447;52.140;5.602;2023-03-01T14:06:25;6.78;;;4.55;;
35592;SDS011;64447;52.140;5.602;2023-03-01T14:09:06;8.38;;;4.57;;
35592;SDS011;64447;52.140;5.602;2023-03-01T14:21:06;6.10;;;4.25;;
35592;SDS011;64447;52.140;5.602;2023-03-01T14:23:33;7.88;;;4.60;;
35592;SDS011;64447;52.140;5.602;2023-03-01T14:26:00;6.65;;;4.13;;
35592;SDS011;64447;52.140;5.602;2023-03-01T14:28:30;5.85;;;4.40;;
35592;SDS011;64447;52.140;5.602;2023-03-01T14:31:02;5.00;;;3.92;;
35592;SDS011;64447;52.140;5.602;2023-03-01T14:37:16;5.78;;;4.63;;
35592;SDS011;64447;52.140;5.602;2023-03-01T14:39:49;6.90;;;4.32;;
35592;SDS011;64447;52.140;5.602;2023-03-01T14:42:15;7.90;;;4.68;;
35592;SDS011;64447;52.140;5.602;2023-03-01T14:44:45;7.53;;;4.85;;
35592;SDS011;64447;52.140;5.602;2023-03-01T14:47:14;5.70;;;4.15;;
35592;SDS011;64447;52.140;5.602;2023-03-01T14:53:40;8.32;;;4.70;;
35592;SDS011;64447;52.140;5.602;2023-03-01T14:56:12;7.60;;;4.40;;
35592;SDS011;64447;52.140;5.602;2023-03-01T14:58:40;6.20;;;4.60;;
35592;SDS011;64447;52.140;5.602;2023-03-01T15:01:05;7.30;;;4.63;;
35592;SDS011;64447;52.140;5.602;2023-03-01T15:03:43;5.65;;;3.90;;
35592;SDS011;64447;52.140;5.602;2023-03-01T15:06:12;5.75;;;4.15;;
35592;SDS011;64447;52.140;5.602;2023-03-01T15:08:42;6.18;;;4.30;;
35592;SDS011;64447;52.140;5.602;2023-03-01T15:13:40;7.38;;;4.82;;
35592;SDS011;64447;52.140;5.602;2023-03-01T15:16:12;5.88;;;4.05;;
35592;SDS011;64447;52.140;5.602;2023-03-01T15:18:46;7.07;;;3.90;;
35592;SDS011;64447;52.140;5.602;2023-03-01T15:21:21;6.95;;;4.00;;
35592;SDS011;64447;52.140;5.602;2023-03-01T15:24:02;6.72;;;3.95;;
35592;SDS011;64447;52.140;5.602;2023-03-01T15:26:32;4.60;;;3.63;;
35592;SDS011;64447;52.140;5.602;2023-03-01T15:29:01;5.32;;;3.70;;
35592;SDS011;64447;52.140;5.602;2023-03-01T15:31:29;5.40;;;4.38;;
35592;SDS011;64447;52.140;5.602;2023-03-01T15:36:52;5.85;;;4.30;;
35592;SDS011;64447;52.140;5.602;2023-03-01T15:39:39;7.45;;;4.22;;
35592;SDS011;64447;52.140;5.602;2023-03-01T15:44:40;7.90;;;4.60;;
35592;SDS011;64447;52.140;5.602;2023-03-01T15:47:26;8.43;;;4.40;;
35592;SDS011;64447;52.140;5.602;2023-03-01T15:49:56;7.15;;;4.68;;
35592;SDS011;64447;52.140;5.602;2023-03-01T15:52:42;8.20;;;4.65;;
35592;SDS011;64447;52.140;5.602;2023-03-01T15:55:15;6.35;;;4.80;;
35592;SDS011;64447;52.140;5.602;2023-03-01T15:57:44;7.80;;;4.63;;
35592;SDS011;64447;52.140;5.602;2023-03-01T16:00:10;7.10;;;4.50;;
35592;SDS011;64447;52.140;5.602;2023-03-01T16:02:38;9.38;;;4.60;;
35592;SDS011;64447;52.140;5.602;2023-03-01T16:05:05;7.85;;;4.50;;
35592;SDS011;64447;52.140;5.602;2023-03-01T16:07:40;6.50;;;4.10;;
35592;SDS011;64447;52.140;5.602;2023-03-01T16:10:05;8.23;;;4.70;;
35592;SDS011;64447;52.140;5.602;2023-03-01T16:12:31;6.53;;;4.20;;
35592;SDS011;64447;52.140;5.602;2023-03-01T16:14:57;10.75;;;4.80;;
35592;SDS011;64447;52.140;5.602;2023-03-01T16:17:23;11.00;;;4.57;;
35592;SDS011;64447;52.140;5.602;2023-03-01T16:19:48;8.30;;;5.07;;
35592;SDS011;64447;52.140;5.602;2023-03-01T16:22:14;6.93;;;4.63;;
35592;SDS011;64447;52.140;5.602;2023-03-01T16:24:40;5.75;;;4.60;;
35592;SDS011;64447;52.140;5.602;2023-03-01T16:27:06;6.90;;;4.30;;
35592;SDS011;64447;52.140;5.602;2023-03-01T16:29:32;6.35;;;4.78;;
35592;SDS011;64447;52.140;5.602;2023-03-01T16:32:00;9.48;;;5.18;;
35592;SDS011;64447;52.140;5.602;2023-03-01T16:34:26;7.60;;;5.03;;
35592;SDS011;64447;52.140;5.602;2023-03-01T16:36:52;9.40;;;6.13;;
35592;SDS011;64447;52.140;5.602;2023-03-01T16:39:17;8.75;;;4.70;;
35592;SDS011;64447;52.140;5.602;2023-03-01T16:41:43;7.03;;;5.63;;
35592;SDS011;64447;52.140;5.602;2023-03-01T16:44:08;8.82;;;5.72;;
35592;SDS011;64447;52.140;5.602;2023-03-01T16:46:34;10.38;;;5.10;;
35592;SDS011;64447;52.140;5.602;2023-03-01T16:49:00;9.93;;;5.63;;
35592;SDS011;64447;52.140;5.602;2023-03-01T16:51:26;8.18;;;5.15;;
35592;SDS011;64447;52.140;5.602;2023-03-01T16:53:52;11.63;;;5.82;;
35592;SDS011;64447;52.140;5.602;2023-03-01T16:56:17;10.35;;;5.40;;
35592;SDS011;64447;52.140;5.602;2023-03-01T16:58:43;7.88;;;5.75;;
35592;SDS011;64447;52.140;5.602;2023-03-01T17:01:14;9.90;;;5.72;;
35592;SDS011;64447;52.140;5.602;2023-03-01T17:03:41;9.43;;;5.35;;
35592;SDS011;64447;52.140;5.602;2023-03-01T17:06:09;8.75;;;5.20;;
35592;SDS011;64447;52.140;5.602;2023-03-01T17:08:37;7.55;;;4.93;;
35592;SDS011;64447;52.140;5.602;2023-03-01T17:11:06;7.80;;;5.30;;
35592;SDS011;64447;52.140;5.602;2023-03-01T17:13:43;7.38;;;4.90;;
35592;SDS011;64447;52.140;5.602;2023-03-01T17:16:10;11.68;;;4.93;;
35592;SDS011;64447;52.140;5.602;2023-03-01T17:18:39;7.75;;;4.93;;
35592;SDS011;64447;52.140;5.602;2023-03-01T17:21:05;9.70;;;5.03;;
35592;SDS011;64447;52.140;5.602;2023-03-01T17:23:32;10.93;;;6.32;;
35592;SDS011;64447;52.140;5.602;2023-03-01T17:25:59;8.55;;;4.50;;
35592;SDS011;64447;52.140;5.602;2023-03-01T17:28:26;9.80;;;5.38;;
35592;SDS011;64447;52.140;5.602;2023-03-01T17:30:53;8.00;;;5.40;;
35592;SDS011;64447;52.140;5.602;2023-03-01T17:33:20;8.10;;;5.30;;
35592;SDS011;64447;52.140;5.602;2023-03-01T17:35:46;9.02;;;5.18;;
35592;SDS011;64447;52.140;5.602;2023-03-01T17:38:12;9.13;;;5.65;;
35592;SDS011;64447;52.140;5.602;2023-03-01T17:40:42;7.88;;;5.60;;
35592;SDS011;64447;52.140;5.602;2023-03-01T17:43:10;8.60;;;5.47;;
35592;SDS011;64447;52.140;5.602;2023-03-01T17:45:37;9.23;;;5.80;;
35592;SDS011;64447;52.140;5.602;2023-03-01T17:48:03;9.57;;;5.97;;